createdAt,value
2022-08-21T00:01:13.837Z,81.50
2022-08-21T00:03:41.540Z,81.70
2022-08-21T00:06:08.514Z,81.80
2022-08-21T00:08:41.210Z,82.20
2022-08-21T00:11:08.243Z,82.40
2022-08-21T00:13:35.414Z,82.70
2022-08-21T00:16:02.785Z,83.10
2022-08-21T00:23:35.400Z,82.90
2022-08-21T00:28:33.944Z,82.50
2022-08-21T00:36:05.060Z,82.60
2022-08-21T00:41:23.685Z,82.90
2022-08-21T00:43:54.383Z,82.80
2022-08-21T00:51:38.696Z,83.20
2022-08-21T00:54:06.234Z,83.20
2022-08-21T01:04:15.830Z,83.20
2022-08-21T01:09:14.610Z,83.60
2022-08-21T01:11:43.904Z,83.80
2022-08-21T01:21:54.689Z,84.80
2022-08-21T01:26:53.797Z,85.20
2022-08-21T01:29:43.628Z,85.10
2022-08-21T01:32:13.893Z,85.20
2022-08-21T01:34:43.704Z,85.40
2022-08-21T01:39:44.081Z,85.50
2022-08-21T01:47:15.982Z,86.20
2022-08-21T01:49:44.639Z,86.20
2022-08-21T01:54:43.926Z,85.50
2022-08-21T01:59:43.923Z,85.10
2022-08-21T02:02:10.502Z,85.00
2022-08-21T02:04:37.104Z,84.70
2022-08-21T02:07:04.526Z,84.40
2022-08-21T02:09:34.963Z,84.60
2022-08-21T02:17:09.557Z,85.50
2022-08-21T02:19:40.429Z,85.70
2022-08-21T02:27:12.284Z,85.70
2022-08-21T02:29:39.195Z,85.40
2022-08-21T02:32:08.656Z,85.40
2022-08-21T02:34:35.232Z,85.60
2022-08-21T02:37:01.797Z,85.50
2022-08-21T02:39:28.375Z,85.40
2022-08-21T02:41:54.956Z,85.10
2022-08-21T02:44:21.527Z,85.40
2022-08-21T02:46:57.186Z,85.10
2022-08-21T02:49:23.817Z,85.20
2022-08-21T02:51:50.444Z,85.20
2022-08-21T02:54:16.998Z,85.40
2022-08-21T02:56:43.564Z,85.80
2022-08-21T02:59:10.168Z,86.30
2022-08-21T03:01:37.952Z,86.40
2022-08-21T03:04:04.662Z,86.40
2022-08-21T03:06:31.235Z,86.40
2022-08-21T03:08:58.498Z,86.30
2022-08-21T03:11:25.058Z,86.20
2022-08-21T03:18:54.673Z,86.00
2022-08-21T03:23:54.951Z,86.10
2022-08-21T03:31:25.107Z,86.70
2022-08-21T03:36:24.833Z,86.60
2022-08-21T03:43:54.923Z,87.40
2022-08-21T03:48:53.584Z,87.60
2022-08-21T03:56:19.178Z,88.30
2022-08-21T03:58:45.981Z,88.90
2022-08-21T04:03:44.970Z,89.20
2022-08-21T04:08:43.908Z,89.40
2022-08-21T04:13:44.878Z,89.80
2022-08-21T04:18:43.784Z,89.40
2022-08-21T04:23:43.937Z,88.90
2022-08-21T04:31:14.041Z,89.60
2022-08-21T04:38:44.691Z,90.20
2022-08-21T04:43:43.929Z,90.20
2022-08-21T04:48:42.517Z,90.10
2022-08-21T04:51:15.940Z,90.20
2022-08-21T04:53:49.763Z,90.00
2022-08-21T04:56:29.424Z,89.80
2022-08-21T04:59:00.648Z,89.40
2022-08-21T05:04:05.259Z,89.60
2022-08-21T05:06:35.234Z,89.90
2022-08-21T05:09:02.449Z,89.80
2022-08-21T05:11:31.256Z,89.70
2022-08-21T05:13:57.915Z,90.00
2022-08-21T05:16:36.948Z,90.10
2022-08-21T05:19:04.759Z,90.10
2022-08-21T05:26:38.321Z,90.50
2022-08-21T05:29:14.013Z,90.50
2022-08-21T05:34:16.231Z,90.20
2022-08-21T05:36:43.887Z,90.20
2022-08-21T05:41:37.047Z,90.20
2022-08-21T05:44:04.079Z,90.20
2022-08-21T05:46:37.505Z,90.30
2022-08-21T05:49:04.131Z,90.30
2022-08-21T05:51:31.287Z,90.20
2022-08-21T05:53:57.838Z,90.30
2022-08-21T05:56:24.418Z,90.20
2022-08-21T05:58:50.999Z,90.20
2022-08-21T06:01:17.619Z,90.10
2022-08-21T06:03:44.258Z,90.20
2022-08-21T06:06:10.971Z,90.30
2022-08-21T06:31:24.567Z,90.70
2022-08-21T06:38:54.519Z,90.50
2022-08-21T06:41:26.259Z,90.70
2022-08-21T06:43:53.362Z,90.30
2022-08-21T06:46:19.992Z,90.20
2022-08-21T06:48:46.608Z,90.10
2022-08-21T06:51:13.292Z,90.10
2022-08-21T07:03:43.408Z,89.90
2022-08-21T07:08:43.808Z,89.50
2022-08-21T07:11:22.874Z,89.30
2022-08-21T07:23:54.833Z,87.90
2022-08-21T07:26:24.837Z,87.60
2022-08-21T07:31:26.985Z,87.30
2022-08-21T07:33:53.963Z,87.10
2022-08-21T07:46:32.867Z,86.50
2022-08-21T07:48:59.464Z,86.70
2022-08-21T07:51:28.776Z,86.70
2022-08-21T07:53:58.896Z,86.50
2022-08-21T07:56:25.748Z,86.50
2022-08-21T07:58:52.807Z,86.40
2022-08-21T08:31:43.452Z,84.90
2022-08-21T08:39:13.576Z,84.40
2022-08-21T08:44:43.383Z,84.30
2022-08-21T08:47:13.529Z,84.20
2022-08-21T09:33:05.031Z,84.20
2022-08-21T09:35:33.290Z,84.10
2022-08-21T09:38:03.986Z,84.10
2022-08-21T09:46:05.891Z,84.00
2022-08-21T09:51:25.459Z,84.10
2022-08-21T09:57:15.784Z,83.80
2022-08-21T09:59:43.947Z,83.90
2022-08-21T10:19:23.509Z,84.20
2022-08-21T10:27:42.809Z,84.20
2022-08-21T10:30:25.071Z,84.10
2022-08-21T10:38:48.711Z,84.00
2022-08-21T10:41:41.638Z,83.90
2022-08-21T10:44:22.917Z,83.90
2022-08-21T10:47:09.675Z,83.80
2022-08-21T10:50:02.739Z,83.50
2022-08-21T10:52:35.195Z,83.60
2022-08-21T11:00:44.336Z,83.50
2022-08-21T11:05:56.141Z,83.50
2022-08-21T11:11:12.982Z,83.30
2022-08-21T11:14:03.152Z,83.20
2022-08-21T11:16:49.799Z,83.20
2022-08-21T11:19:55.836Z,83.30
2022-08-21T11:22:35.929Z,83.40
2022-08-21T11:25:14.522Z,83.30
2022-08-21T11:28:04.452Z,83.30
2022-08-21T11:33:43.199Z,83.00
2022-08-21T11:36:25.672Z,83.10
2022-08-21T11:39:03.231Z,83.70
2022-08-21T11:44:43.094Z,83.10
2022-08-21T11:47:48.234Z,83.10
2022-08-21T11:50:34.430Z,83.10
2022-08-21T11:53:22.268Z,83.10
2022-08-21T12:06:43.291Z,82.90
2022-08-21T12:15:12.764Z,82.80
2022-08-21T12:20:50.093Z,82.70
2022-08-21T12:23:25.931Z,82.70
2022-08-21T12:29:17.701Z,82.70
2022-08-21T12:32:23.267Z,83.50
2022-08-21T12:34:55.523Z,82.70
2022-08-21T12:37:30.891Z,82.70
2022-08-21T12:40:01.411Z,82.60
2022-08-21T12:42:44.806Z,82.70
2022-08-21T12:48:29.603Z,82.60
2022-08-21T12:51:13.815Z,82.60
2022-08-21T12:53:48.348Z,82.60
2022-08-21T12:56:20.766Z,82.60
2022-08-21T12:58:50.291Z,82.60
2022-08-21T13:01:25.229Z,82.50
2022-08-21T13:04:04.975Z,82.50
2022-08-21T13:11:48.228Z,82.50
2022-08-21T13:14:26.828Z,82.50
2022-08-21T13:16:56.851Z,82.50
2022-08-21T13:19:24.523Z,82.40
2022-08-21T13:21:53.251Z,82.30
2022-08-21T13:27:24.645Z,82.30
2022-08-21T13:30:07.524Z,82.10
2022-08-21T13:32:38.634Z,82.30
2022-08-21T13:35:24.794Z,82.20
2022-08-21T13:40:28.731Z,82.10
2022-08-21T13:42:56.365Z,82.10
2022-08-21T13:50:38.819Z,82.00
2022-08-21T13:53:07.621Z,82.00
2022-08-21T14:04:09.075Z,81.90
2022-08-21T14:06:38.538Z,82.00
2022-08-21T14:14:47.204Z,81.90
2022-08-21T14:17:33.464Z,81.90
2022-08-21T14:20:00.833Z,82.00
2022-08-21T14:33:30.191Z,82.00
2022-08-21T14:35:56.976Z,82.00
2022-08-21T14:38:27.223Z,82.00
2022-08-21T14:40:58.559Z,81.90
2022-08-21T14:43:28.400Z,81.90
2022-08-21T14:45:56.103Z,82.00
2022-08-21T14:48:22.728Z,81.90
2022-08-21T15:11:42.002Z,81.90
2022-08-21T15:14:20.323Z,81.80
2022-08-21T15:16:48.028Z,81.80
2022-08-21T15:21:46.227Z,81.80
2022-08-21T15:24:12.812Z,81.80
2022-08-21T15:54:36.868Z,81.80
2022-08-21T16:02:20.571Z,81.80
2022-08-21T16:04:47.268Z,81.80
2022-08-21T16:07:14.038Z,81.70
2022-08-21T16:09:40.654Z,81.70
2022-08-21T16:12:08.062Z,81.70
2022-08-21T16:14:37.164Z,81.70
2022-08-21T16:17:08.130Z,81.70
2022-08-21T16:19:36.987Z,81.70
2022-08-21T16:24:36.439Z,81.70
2022-08-21T16:29:37.851Z,81.70
2022-08-21T16:32:07.288Z,81.70
2022-08-21T16:34:34.068Z,81.70
2022-08-21T16:37:00.658Z,81.70
2022-08-21T16:39:27.465Z,81.70
2022-08-21T16:44:26.198Z,81.60
2022-08-21T16:46:56.827Z,81.60
2022-08-21T16:49:23.412Z,81.70
2022-08-21T17:12:03.829Z,81.60
2022-08-21T17:17:06.747Z,81.60
2022-08-21T17:44:56.534Z,81.50
2022-08-21T17:52:26.469Z,81.40
2022-08-21T18:05:05.962Z,81.40
2022-08-21T18:07:33.077Z,81.80
2022-08-21T18:10:05.858Z,81.40
2022-08-21T18:12:33.247Z,81.50
2022-08-21T18:15:01.431Z,81.50
2022-08-21T18:17:30.227Z,81.40
2022-08-21T18:19:56.993Z,81.50
2022-08-21T18:24:55.199Z,81.50
2022-08-21T18:27:24.664Z,81.50
2022-08-21T18:29:56.710Z,81.50
2022-08-21T18:32:31.266Z,81.60
2022-08-21T18:35:00.404Z,81.50
2022-08-21T18:37:27.158Z,81.60
2022-08-21T18:39:53.890Z,81.60
2022-08-21T18:42:21.476Z,81.60
2022-08-21T18:55:31.336Z,81.70
2022-08-21T18:57:58.971Z,81.80
2022-08-21T19:00:30.494Z,81.80
2022-08-21T19:02:57.570Z,81.90
2022-08-21T19:05:25.196Z,81.80
2022-08-21T19:07:55.036Z,81.90
2022-08-21T19:10:27.598Z,81.90
2022-08-21T19:12:57.787Z,81.90
2022-08-21T19:15:24.621Z,81.90
2022-08-21T19:17:53.479Z,81.90
2022-08-21T19:20:27.115Z,81.90
2022-08-21T19:22:55.409Z,81.90
2022-08-21T19:25:33.787Z,81.90
2022-08-21T19:31:00.625Z,81.90
2022-08-21T19:33:33.593Z,81.90
2022-08-21T19:36:00.619Z,81.90
2022-08-21T19:38:27.483Z,81.90
2022-08-21T19:40:55.894Z,81.90
2022-08-21T19:43:23.799Z,81.90
2022-08-21T19:45:55.311Z,81.90
2022-08-21T19:48:23.926Z,81.90
2022-08-21T19:50:51.414Z,81.90
2022-08-21T19:53:19.616Z,81.90
2022-08-21T19:55:48.141Z,82.00
2022-08-21T19:58:31.963Z,82.00
2022-08-21T20:00:58.647Z,82.00
2022-08-21T20:03:25.310Z,82.00
2022-08-21T20:05:52.131Z,82.00
2022-08-21T20:08:21.103Z,82.00
2022-08-21T20:10:49.942Z,82.00
2022-08-21T20:13:21.196Z,82.00
2022-08-21T20:15:50.356Z,82.00
2022-08-21T20:18:17.834Z,82.00
2022-08-21T20:20:46.302Z,82.00
2022-08-21T20:23:15.664Z,82.00
2022-08-21T20:25:44.163Z,82.00
2022-08-21T20:28:10.845Z,82.00
2022-08-21T20:30:37.491Z,82.00
2022-08-21T20:33:14.355Z,82.00
2022-08-21T20:35:45.256Z,82.00
2022-08-21T20:38:11.827Z,82.70
2022-08-21T20:40:40.345Z,82.00
2022-08-21T20:43:08.282Z,79.50
2022-08-21T20:45:40.440Z,78.90
2022-08-21T20:48:23.497Z,78.80
2022-08-21T20:50:56.515Z,79.10
2022-08-21T20:53:42.818Z,79.60
2022-08-21T20:56:16.855Z,80.30
2022-08-21T20:58:55.064Z,80.70
2022-08-21T21:01:23.250Z,81.10
2022-08-21T21:04:04.150Z,81.30
2022-08-21T21:06:37.279Z,81.50
2022-08-21T21:09:14.599Z,81.90
2022-08-21T21:11:49.991Z,83.10
2022-08-21T21:14:46.828Z,82.20
2022-08-21T21:17:28.290Z,82.60
2022-08-21T21:20:10.068Z,83.50
2022-08-21T21:22:44.558Z,84.30
2022-08-21T21:25:39.752Z,85.00
2022-08-21T21:28:12.935Z,85.60
2022-08-21T21:30:46.585Z,86.10
2022-08-21T21:33:16.312Z,86.50
2022-08-21T21:35:54.515Z,86.80
2022-08-21T21:38:51.938Z,87.20
2022-08-21T21:41:36.675Z,87.50
2022-08-21T21:44:40.135Z,88.00
2022-08-21T21:47:42.842Z,88.40
2022-08-21T21:50:29.093Z,88.80
2022-08-21T21:53:30.131Z,89.10
2022-08-21T21:56:17.332Z,89.30
2022-08-21T21:59:02.523Z,85.00
2022-08-21T22:02:12.884Z,80.80
2022-08-21T22:04:56.266Z,79.50
2022-08-21T22:07:36.599Z,79.30
2022-08-21T22:10:30.314Z,79.40
2022-08-21T22:13:14.138Z,79.50
2022-08-21T22:15:53.129Z,79.70
2022-08-21T22:18:25.517Z,80.00
2022-08-21T22:20:57.975Z,79.80
2022-08-21T22:23:32.494Z,79.30
2022-08-21T22:26:16.430Z,79.10
2022-08-21T22:28:47.259Z,78.80
2022-08-21T22:31:26.130Z,79.00
2022-08-21T22:34:18.460Z,79.10
2022-08-21T22:36:55.698Z,79.20
2022-08-21T22:39:39.153Z,79.10
2022-08-21T22:42:16.047Z,79.30
2022-08-21T22:44:53.566Z,79.50
2022-08-21T22:47:24.447Z,80.20
2022-08-21T22:49:54.672Z,79.40
2022-08-21T22:52:31.699Z,79.40
2022-08-21T22:55:02.125Z,79.50
2022-08-21T22:57:35.720Z,79.50
2022-08-21T23:00:15.558Z,79.70
2022-08-21T23:02:48.237Z,79.70
2022-08-21T23:05:19.830Z,79.70
2022-08-21T23:07:49.635Z,79.90
2022-08-21T23:10:27.106Z,80.10
2022-08-21T23:13:02.506Z,80.20
2022-08-21T23:15:51.296Z,80.20
2022-08-21T23:18:33.349Z,80.40
2022-08-21T23:21:10.432Z,80.80
2022-08-21T23:23:53.358Z,81.60
2022-08-21T23:26:26.611Z,82.50
2022-08-21T23:29:33.683Z,83.80
2022-08-21T23:32:11.002Z,83.80
2022-08-21T23:35:03.215Z,84.20
2022-08-21T23:37:51.888Z,84.80
2022-08-21T23:40:51.131Z,85.50
2022-08-21T23:43:59.560Z,85.80
2022-08-21T23:46:41.438Z,85.80
2022-08-21T23:49:29.995Z,85.60
2022-08-21T23:52:01.552Z,85.40
2022-08-21T23:54:48.380Z,85.00
2022-08-21T23:57:39.552Z,84.90
